createdAt,value
2016-05-25T00:00:15.485Z,11.66
2016-05-25T00:01:15.472Z,11.73
2016-05-25T00:02:15.443Z,11.73
2016-05-25T00:03:15.430Z,11.72
2016-05-25T00:04:15.402Z,11.7
2016-05-25T00:05:15.233Z,11.7
2016-05-25T00:06:15.205Z,11.8
2016-05-25T00:07:15.332Z,11.8
2016-05-25T00:08:15.303Z,11.8
2016-05-25T00:09:15.291Z,11.77
2016-05-25T00:10:15.262Z,11.8
2016-05-25T00:11:15.233Z,11.84
2016-05-25T00:12:15.204Z,11.84
2016-05-25T00:13:15.191Z,11.81
2016-05-25T00:14:15.163Z,11.84
2016-05-25T00:15:15.134Z,11.8
2016-05-25T00:16:15.310Z,11.8
2016-05-25T00:17:15.093Z,11.69
2016-05-25T00:18:15.065Z,11.8
2016-05-25T00:19:15.051Z,11.78
2016-05-25T00:20:14.867Z,11.73
2016-05-25T00:21:14.995Z,11.8
2016-05-25T00:22:14.825Z,11.73
2016-05-25T00:23:14.953Z,11.72
2016-05-25T00:24:14.925Z,11.7
2016-05-25T00:25:14.912Z,11.73
2016-05-25T00:26:14.883Z,11.73
2016-05-25T00:27:14.854Z,11.72
2016-05-25T00:28:14.842Z,11.75
2016-05-25T00:29:14.814Z,11.7
2016-05-25T00:30:14.800Z,11.72
2016-05-25T00:31:15.256Z,11.7
2016-05-25T00:32:14.742Z,11.68
2016-05-25T00:33:14.558Z,11.73
2016-05-25T00:34:14.545Z,11.66
2016-05-25T00:35:14.672Z,11.62
2016-05-25T00:36:14.660Z,11.66
2016-05-25T00:37:14.630Z,11.65
2016-05-25T00:38:14.619Z,11.65
2016-05-25T00:39:14.575Z,11.63
2016-05-25T00:40:14.561Z,11.7
2016-05-25T00:41:14.533Z,11.65
2016-05-25T00:42:14.504Z,11.68
2016-05-25T00:43:14.476Z,11.68
2016-05-25T00:44:14.462Z,11.7
2016-05-25T00:45:14.434Z,11.65
2016-05-25T00:46:15.187Z,11.62
2016-05-25T00:47:14.393Z,11.62
2016-05-25T00:48:14.396Z,11.59
2016-05-25T00:49:14.335Z,11.63
2016-05-25T00:50:14.338Z,11.69
2016-05-25T00:51:14.293Z,11.63
2016-05-25T00:52:14.296Z,11.7
2016-05-25T00:53:14.253Z,11.66
2016-05-25T00:54:14.223Z,11.65
2016-05-25T00:55:14.196Z,11.59
2016-05-25T00:56:14.182Z,11.62
2016-05-25T00:57:14.153Z,11.65
2016-05-25T00:58:14.141Z,11.62
2016-05-25T00:59:14.097Z,11.65
2016-05-25T01:00:14.084Z,11.66
2016-05-25T01:01:14.586Z,11.63
2016-05-25T01:02:14.042Z,11.73
2016-05-25T01:03:14.014Z,11.69
2016-05-25T01:04:13.985Z,11.72
2016-05-25T01:05:13.972Z,11.68
2016-05-25T01:06:13.958Z,11.69
2016-05-25T01:07:13.915Z,11.72
2016-05-25T01:08:13.902Z,11.69
2016-05-25T01:09:13.874Z,11.73
2016-05-25T01:10:13.845Z,11.69
2016-05-25T01:11:13.832Z,11.7
2016-05-25T01:12:13.804Z,11.72
2016-05-25T01:13:13.634Z,11.73
2016-05-25T01:14:13.762Z,11.7
2016-05-25T01:15:13.733Z,11.65
2016-05-25T01:16:14.048Z,11.65
2016-05-25T01:17:13.692Z,11.68
2016-05-25T01:18:13.663Z,11.66
2016-05-25T01:19:13.635Z,11.72
2016-05-25T01:20:13.621Z,11.68
2016-05-25T01:21:13.624Z,11.68
2016-05-25T01:22:13.565Z,11.66
2016-05-25T01:23:13.551Z,11.62
2016-05-25T01:24:13.523Z,11.6
2016-05-25T01:25:13.339Z,11.55
2016-05-25T01:26:13.481Z,11.6
2016-05-25T01:27:13.454Z,11.68
2016-05-25T01:28:13.456Z,11.65
2016-05-25T01:29:13.412Z,11.57
2016-05-25T01:30:13.383Z,11.59
2016-05-25T01:31:13.370Z,11.54
2016-05-25T01:32:13.186Z,11.59
2016-05-25T01:33:13.313Z,11.63
2016-05-25T01:34:13.284Z,11.66
2016-05-25T01:35:13.272Z,11.59
2016-05-25T01:36:13.258Z,11.52
2016-05-25T01:37:13.214Z,11.68
2016-05-25T01:38:13.185Z,11.62
2016-05-25T01:39:13.172Z,11.63
2016-05-25T01:40:13.145Z,11.52
2016-05-25T01:41:13.132Z,11.57
2016-05-25T01:42:13.103Z,11.54
2016-05-25T01:43:12.918Z,11.54
2016-05-25T01:44:13.046Z,11.62
2016-05-25T01:45:13.018Z,11.62
2016-05-25T01:46:13.301Z,11.65
2016-05-25T01:47:12.991Z,11.62
2016-05-25T01:48:12.963Z,11.54
2016-05-25T01:49:12.935Z,11.55
2016-05-25T01:50:12.921Z,11.51
2016-05-25T01:51:12.892Z,11.54
2016-05-25T01:52:12.865Z,11.63
2016-05-25T01:53:12.835Z,11.65
2016-05-25T01:54:12.823Z,11.65
2016-05-25T01:55:12.794Z,11.69
2016-05-25T01:56:12.781Z,11.68
2016-05-25T01:57:12.768Z,11.63
2016-05-25T01:58:12.723Z,11.65
2016-05-25T01:59:12.711Z,11.66
2016-05-25T02:00:12.683Z,11.57
2016-05-25T02:01:12.670Z,11.63
2016-05-25T02:02:12.626Z,11.55
2016-05-25T02:03:12.597Z,11.68
2016-05-25T02:04:12.584Z,11.63
2016-05-25T02:05:12.571Z,11.55
2016-05-25T02:06:12.386Z,11.62
2016-05-25T02:07:12.514Z,11.55
2016-05-25T02:08:12.485Z,11.52
2016-05-25T02:09:12.472Z,11.62
2016-05-25T02:10:12.288Z,11.68
2016-05-25T02:11:12.416Z,11.65
2016-05-25T02:12:12.403Z,11.73
2016-05-25T02:13:12.374Z,11.65
2016-05-25T02:14:12.346Z,11.68
2016-05-25T02:15:12.316Z,11.69
2016-05-25T02:16:12.960Z,11.73
2016-05-25T02:17:12.337Z,11.69
2016-05-25T02:18:12.246Z,11.68
2016-05-25T02:19:12.234Z,11.73
2016-05-25T02:20:12.205Z,11.78
2016-05-25T02:21:12.192Z,11.77
2016-05-25T02:22:12.163Z,11.84
2016-05-25T02:23:12.135Z,11.77
2016-05-25T02:24:12.123Z,11.81
2016-05-25T02:25:12.093Z,11.77
2016-05-25T02:26:12.065Z,11.87
2016-05-25T02:27:12.051Z,11.75
2016-05-25T02:28:12.023Z,11.81
2016-05-25T02:29:11.994Z,11.84
2016-05-25T02:30:11.966Z,11.7
2016-05-25T02:31:12.266Z,11.81
2016-05-25T02:32:11.769Z,11.84
2016-05-25T02:33:11.912Z,11.88
2016-05-25T02:34:11.884Z,11.83
2016-05-25T02:35:11.855Z,11.83
2016-05-25T02:36:11.842Z,11.88
2016-05-25T02:37:11.813Z,11.86
2016-05-25T02:38:11.785Z,11.83
2016-05-25T02:39:11.755Z,11.83
2016-05-25T02:40:11.728Z,11.83
2016-05-25T02:41:11.574Z,11.83
2016-05-25T02:42:11.702Z,11.86
2016-05-25T02:43:11.674Z,11.8
2016-05-25T02:44:11.660Z,11.83
2016-05-25T02:45:11.632Z,11.84
2016-05-25T02:46:11.697Z,11.88
2016-05-25T02:47:11.574Z,11.84
2016-05-25T02:48:11.562Z,11.86
2016-05-25T02:49:11.532Z,11.84
2016-05-25T02:50:11.504Z,11.83
2016-05-25T02:51:11.492Z,11.84
2016-05-25T02:52:11.462Z,11.88
2016-05-25T02:53:11.435Z,11.88
2016-05-25T02:54:11.406Z,11.84
2016-05-25T02:55:11.393Z,11.87
2016-05-25T02:56:11.365Z,11.81
2016-05-25T02:57:11.336Z,11.81
2016-05-25T02:58:11.323Z,11.81
2016-05-25T02:59:11.294Z,11.84
2016-05-25T03:00:11.265Z,11.83
2016-05-25T03:01:11.237Z,11.8
2016-05-25T03:02:11.287Z,11.83
2016-05-25T03:03:11.227Z,11.88
2016-05-25T03:04:11.183Z,11.83
2016-05-25T03:05:11.325Z,11.84
2016-05-25T03:06:11.142Z,11.84
2016-05-25T03:07:11.113Z,11.87
2016-05-25T03:08:11.084Z,11.84
2016-05-25T03:09:11.055Z,11.9
2016-05-25T03:10:11.042Z,11.86
2016-05-25T03:11:11.013Z,11.84
2016-05-25T03:12:10.986Z,11.99
2016-05-25T03:13:10.816Z,11.95
2016-05-25T03:14:10.944Z,11.9
2016-05-25T03:15:10.930Z,11.91
2016-05-25T03:16:10.996Z,11.9
2016-05-25T03:17:11.343Z,11.88
2016-05-25T03:18:10.846Z,11.94
2016-05-25T03:19:10.832Z,11.97
2016-05-25T03:20:10.648Z,11.91
2016-05-25T03:21:10.791Z,11.95
2016-05-25T03:22:10.607Z,11.9
2016-05-25T03:23:10.577Z,11.86
2016-05-25T03:24:10.705Z,11.87
2016-05-25T03:25:10.693Z,12
2016-05-25T03:26:10.665Z,11.99
2016-05-25T03:27:10.635Z,11.95
2016-05-25T03:28:10.623Z,12.04
2016-05-25T03:29:10.593Z,11.95
2016-05-25T03:30:10.565Z,11.97
2016-05-25T03:31:10.553Z,12
2016-05-25T03:32:10.539Z,12
2016-05-25T03:33:10.511Z,11.87
2016-05-25T03:34:10.482Z,12
2016-05-25T03:35:10.453Z,11.91
2016-05-25T03:36:10.441Z,11.99
2016-05-25T03:37:10.256Z,11.97
2016-05-25T03:38:10.383Z,12.07
2016-05-25T03:39:10.370Z,12.03
2016-05-25T03:40:10.342Z,12
2016-05-25T03:41:10.313Z,12.07
2016-05-25T03:42:10.285Z,11.97
2016-05-25T03:43:10.272Z,11.95
2016-05-25T03:44:10.258Z,12.13
2016-05-25T03:45:10.230Z,12
2016-05-25T03:46:10.718Z,11.94
2016-05-25T03:47:10.174Z,12
2016-05-25T03:48:10.161Z,12
2016-05-25T03:49:10.132Z,11.94
2016-05-25T03:50:10.119Z,12.03
2016-05-25T03:51:10.090Z,12.07
2016-05-25T03:52:10.062Z,12.09
2016-05-25T03:53:10.033Z,12.1
2016-05-25T03:54:10.020Z,12.15
2016-05-25T03:55:09.993Z,12.09
2016-05-25T03:56:09.963Z,12.1
2016-05-25T03:57:09.794Z,12.02
2016-05-25T03:58:09.938Z,12
2016-05-25T03:59:09.894Z,12
2016-05-25T04:00:09.724Z,12.02
2016-05-25T04:01:09.867Z,12
2016-05-25T04:02:09.840Z,12.02
2016-05-25T04:03:09.810Z,11.88
2016-05-25T04:04:09.782Z,11.91
2016-05-25T04:05:09.770Z,11.88
2016-05-25T04:06:09.740Z,11.94
2016-05-25T04:07:09.727Z,11.94
2016-05-25T04:08:09.684Z,11.97
2016-05-25T04:09:09.670Z,11.95
2016-05-25T04:10:09.642Z,11.88
2016-05-25T04:11:09.628Z,11.78
2016-05-25T04:12:09.600Z,11.88
2016-05-25T04:13:09.587Z,11.9
2016-05-25T04:14:09.559Z,11.9
2016-05-25T04:15:09.374Z,11.94
2016-05-25T04:16:09.939Z,11.87
2016-05-25T04:17:09.347Z,11.86
2016-05-25T04:18:09.460Z,11.9
2016-05-25T04:19:09.455Z,11.88
2016-05-25T04:20:09.310Z,11.9
2016-05-25T04:21:09.336Z,11.87
2016-05-25T04:22:09.456Z,11.87
2016-05-25T04:23:09.467Z,11.81
2016-05-25T04:24:09.447Z,11.83
2016-05-25T04:25:09.443Z,11.9
2016-05-25T04:26:09.412Z,11.81
2016-05-25T04:27:09.391Z,11.84
2016-05-25T04:28:09.387Z,11.87
2016-05-25T04:29:09.210Z,11.87
2016-05-25T04:30:09.707Z,11.95
2016-05-25T04:31:09.332Z,11.97
2016-05-25T04:32:09.322Z,11.99
2016-05-25T04:33:09.280Z,11.91
2016-05-25T04:34:09.271Z,11.94
2016-05-25T04:35:09.243Z,11.9
2016-05-25T04:36:09.215Z,11.83
2016-05-25T04:37:09.204Z,11.91
2016-05-25T04:38:09.176Z,11.94
2016-05-25T04:39:09.166Z,12.04
2016-05-25T04:40:10.749Z,11.9
2016-05-25T04:41:09.108Z,12.13
2016-05-25T04:42:08.940Z,12.06
2016-05-25T04:43:09.068Z,12.09
2016-05-25T04:44:09.039Z,12.12
2016-05-25T04:45:10.420Z,12.15
2016-05-25T04:46:09.014Z,12.15
2016-05-25T04:47:09.001Z,12.15
2016-05-25T04:48:08.957Z,12.27
2016-05-25T04:49:08.928Z,12.2
2016-05-25T04:50:08.915Z,12.24
2016-05-25T04:51:08.887Z,12.24
2016-05-25T04:52:08.858Z,12.22
2016-05-25T04:53:08.830Z,12.24
2016-05-25T04:54:08.816Z,12.21
2016-05-25T04:55:08.804Z,12.21
2016-05-25T04:56:08.775Z,12.22
2016-05-25T04:57:08.746Z,12.22
2016-05-25T04:58:08.733Z,12.25
2016-05-25T04:59:08.705Z,12.37
2016-05-25T05:00:08.677Z,12.36
2016-05-25T05:01:08.664Z,12.36
2016-05-25T05:02:08.479Z,12.46
2016-05-25T05:03:08.622Z,12.42
2016-05-25T05:04:08.610Z,12.37
2016-05-25T05:05:08.565Z,12.39
2016-05-25T05:06:08.552Z,12.37
2016-05-25T05:07:08.523Z,12.4
2016-05-25T05:08:08.510Z,12.55
2016-05-25T05:09:08.498Z,12.49
2016-05-25T05:10:08.453Z,12.49
2016-05-25T05:11:08.440Z,12.53
2016-05-25T05:12:08.412Z,12.57
2016-05-25T05:13:08.399Z,12.49
2016-05-25T05:14:08.370Z,12.5
2016-05-25T05:15:08.342Z,12.5
2016-05-25T05:16:08.329Z,12.49
2016-05-25T05:17:08.160Z,12.46
2016-05-25T05:18:08.272Z,12.55
2016-05-25T05:19:08.259Z,12.58
2016-05-25T05:20:08.073Z,12.54
2016-05-25T05:21:08.218Z,12.57
2016-05-25T05:22:08.033Z,12.62
2016-05-25T05:23:08.176Z,12.61
2016-05-25T05:24:08.147Z,12.67
2016-05-25T05:25:08.119Z,12.64
2016-05-25T05:26:08.106Z,12.75
2016-05-25T05:27:08.078Z,12.7
2016-05-25T05:28:08.049Z,12.67
2016-05-25T05:29:08.036Z,12.61
2016-05-25T05:30:08.007Z,12.62
2016-05-25T05:31:07.994Z,12.62
2016-05-25T05:32:07.966Z,12.75
2016-05-25T05:33:07.953Z,12.75
2016-05-25T05:34:07.783Z,12.78
2016-05-25T05:35:07.896Z,12.78
2016-05-25T05:36:07.727Z,12.79
2016-05-25T05:37:07.855Z,12.83
2016-05-25T05:38:07.826Z,12.79
2016-05-25T05:39:07.829Z,12.78
2016-05-25T05:40:07.784Z,12.82
2016-05-25T05:41:07.771Z,12.79
2016-05-25T05:42:07.743Z,12.82
2016-05-25T05:43:07.729Z,12.8
2016-05-25T05:44:07.701Z,12.8
2016-05-25T05:45:07.687Z,12.8
2016-05-25T05:46:10.066Z,12.82
2016-05-25T05:47:07.631Z,12.86
2016-05-25T05:48:07.618Z,12.79
2016-05-25T05:49:07.590Z,12.8
2016-05-25T05:50:07.576Z,12.85
2016-05-25T05:51:07.407Z,12.8
2016-05-25T05:52:07.520Z,12.83
2016-05-25T05:53:07.506Z,12.83
2016-05-25T05:54:07.494Z,12.85
2016-05-25T05:55:07.449Z,12.83
2016-05-25T05:56:07.453Z,12.86
2016-05-25T05:57:07.423Z,12.87
2016-05-25T05:58:07.395Z,12.91
2016-05-25T05:59:07.367Z,12.83
2016-05-25T06:00:07.353Z,12.82
2016-05-25T06:01:07.356Z,12.83
2016-05-25T06:02:07.171Z,12.86
2016-05-25T06:03:07.393Z,12.86
2016-05-25T06:04:07.255Z,12.83
2016-05-25T06:05:07.241Z,12.94
2016-05-25T06:06:07.791Z,12.9
2016-05-25T06:07:07.185Z,12.91
2016-05-25T06:08:07.171Z,12.93
2016-05-25T06:09:07.160Z,12.97
2016-05-25T06:10:06.974Z,12.86
2016-05-25T06:11:06.961Z,12.9
2016-05-25T06:12:07.089Z,13.03
2016-05-25T06:13:07.060Z,12.98
2016-05-25T06:14:07.032Z,13.04
2016-05-25T06:15:07.018Z,13.04
2016-05-25T06:16:07.459Z,12.98
2016-05-25T06:17:06.977Z,13.11
2016-05-25T06:18:06.948Z,12.97
2016-05-25T06:19:06.921Z,13.03
2016-05-25T06:20:06.907Z,13.01
2016-05-25T06:21:06.878Z,13.05
2016-05-25T06:22:06.866Z,13
2016-05-25T06:23:06.837Z,13
2016-05-25T06:24:06.825Z,13.01
2016-05-25T06:25:06.796Z,13.04
2016-05-25T06:26:06.783Z,13.03
2016-05-25T06:27:06.770Z,13
2016-05-25T06:28:06.741Z,13.01
2016-05-25T06:29:06.916Z,13.13
2016-05-25T06:30:06.527Z,13.08
2016-05-25T06:31:06.671Z,13
2016-05-25T06:32:06.721Z,13.08
2016-05-25T06:33:06.630Z,13.15
2016-05-25T06:34:06.445Z,13.12
2016-05-25T06:35:06.433Z,13.15
2016-05-25T06:36:06.560Z,13.16
2016-05-25T06:37:06.547Z,13.22
2016-05-25T06:38:06.550Z,13.19
2016-05-25T06:39:06.505Z,13.12
2016-05-25T06:40:06.477Z,13.12
2016-05-25T06:41:06.448Z,13.04
2016-05-25T06:42:06.436Z,13.03
2016-05-25T06:43:06.407Z,12.95
2016-05-25T06:44:06.394Z,12.97
2016-05-25T06:45:06.365Z,13
2016-05-25T06:46:06.180Z,12.87
2016-05-25T06:47:06.167Z,12.94
2016-05-25T06:48:06.295Z,12.9
2016-05-25T06:49:06.282Z,12.83
2016-05-25T06:50:06.253Z,12.93
2016-05-25T06:51:06.241Z,12.87
2016-05-25T06:52:06.212Z,12.85
2016-05-25T06:53:06.198Z,12.76
2016-05-25T06:54:06.031Z,12.72
2016-05-25T06:55:06.158Z,12.78
2016-05-25T06:56:06.129Z,12.78
2016-05-25T06:57:06.101Z,12.83
2016-05-25T06:58:06.072Z,12.83
2016-05-25T06:59:06.059Z,12.83
2016-05-25T07:00:06.030Z,12.94
2016-05-25T07:01:06.017Z,12.82
2016-05-25T07:02:05.989Z,12.85
2016-05-25T07:03:05.961Z,12.86
2016-05-25T07:04:05.947Z,12.8
2016-05-25T07:05:05.919Z,12.8
2016-05-25T07:06:05.938Z,12.86
2016-05-25T07:07:05.877Z,12.87
2016-05-25T07:08:05.864Z,12.83
2016-05-25T07:09:05.867Z,12.87
2016-05-25T07:10:05.838Z,12.83
2016-05-25T07:11:05.794Z,12.86
2016-05-25T07:12:05.782Z,12.93
2016-05-25T07:13:05.752Z,12.9
2016-05-25T07:14:05.724Z,13
2016-05-25T07:15:05.712Z,13.04
2016-05-25T07:16:05.682Z,13.03
2016-05-25T07:17:05.529Z,13.19
2016-05-25T07:18:05.641Z,13.22
2016-05-25T07:19:05.629Z,13.31
2016-05-25T07:20:05.600Z,13.44
2016-05-25T07:21:05.603Z,13.5
2016-05-25T07:22:05.606Z,13.56
2016-05-25T07:23:05.452Z,13.62
2016-05-25T07:24:05.376Z,13.65
2016-05-25T07:25:05.504Z,13.75
2016-05-25T07:26:05.491Z,13.75
2016-05-25T07:27:05.462Z,13.81
2016-05-25T07:28:05.434Z,13.92
2016-05-25T07:29:05.420Z,13.95
2016-05-25T07:30:05.408Z,14
2016-05-25T07:31:05.380Z,14.05
2016-05-25T07:32:05.367Z,14.14
2016-05-25T07:33:05.338Z,14.18
2016-05-25T07:34:05.325Z,14.23
2016-05-25T07:35:05.141Z,14.26
2016-05-25T07:36:05.283Z,14.4
2016-05-25T07:37:05.272Z,14.35
2016-05-25T07:38:05.399Z,14.47
2016-05-25T07:39:05.230Z,14.63
2016-05-25T07:40:05.200Z,14.81
2016-05-25T07:41:05.188Z,14.92
2016-05-25T07:42:05.018Z,14.94
2016-05-25T07:43:05.146Z,15.09
2016-05-25T07:44:05.133Z,15.21
2016-05-25T07:45:05.136Z,15.24
2016-05-25T07:46:05.091Z,15.36
2016-05-25T07:47:05.079Z,15.43
2016-05-25T07:48:05.066Z,15.52
2016-05-25T07:49:05.037Z,15.57
2016-05-25T07:50:05.025Z,15.68
2016-05-25T07:51:05.012Z,15.82
2016-05-25T07:52:04.999Z,15.88
2016-05-25T07:53:04.985Z,15.88
2016-05-25T07:54:04.957Z,15.98
2016-05-25T07:55:04.945Z,16.12
2016-05-25T07:56:04.932Z,16.13
2016-05-25T07:57:04.918Z,16.09
2016-05-25T07:58:09.452Z,16.08
2016-05-25T07:59:04.877Z,16.09
2016-05-25T08:00:04.879Z,16.21
2016-05-25T08:01:04.850Z,16.26
2016-05-25T08:02:04.838Z,16.08
2016-05-25T08:03:04.825Z,16.09
2016-05-25T08:04:04.797Z,16.09
2016-05-25T08:05:04.768Z,16.04
2016-05-25T08:06:04.614Z,15.9
2016-05-25T08:07:04.742Z,15.83
2016-05-25T08:08:04.730Z,15.79
2016-05-25T08:09:04.716Z,15.72
2016-05-25T08:10:04.703Z,15.61
2016-05-25T08:11:04.691Z,15.65
2016-05-25T08:12:04.662Z,15.58
2016-05-25T08:13:04.649Z,15.46
2016-05-25T08:14:04.635Z,15.49
2016-05-25T08:15:04.607Z,15.43
2016-05-25T08:16:04.594Z,15.47
2016-05-25T08:17:04.441Z,15.37
2016-05-25T08:18:04.553Z,15.42
2016-05-25T08:19:04.540Z,15.37
2016-05-25T08:20:04.527Z,15.42
2016-05-25T08:21:04.499Z,15.36
2016-05-25T08:22:04.485Z,15.47
2016-05-25T08:23:04.316Z,15.52
2016-05-25T08:24:04.304Z,15.61
2016-05-25T08:25:04.431Z,15.52
2016-05-25T08:26:04.418Z,15.47
2016-05-25T08:27:04.389Z,15.59
2016-05-25T08:28:04.376Z,15.75
2016-05-25T08:29:04.551Z,15.62
2016-05-25T08:30:04.367Z,15.62
2016-05-25T08:31:04.166Z,15.77
2016-05-25T08:32:04.450Z,15.79
2016-05-25T08:33:04.297Z,15.76
2016-05-25T08:34:04.268Z,15.67
2016-05-25T08:35:04.255Z,15.62
2016-05-25T08:36:04.242Z,15.65
2016-05-25T08:37:04.213Z,15.7
2016-05-25T08:38:05.889Z,15.83
2016-05-25T08:39:04.031Z,15.88
2016-05-25T08:40:04.222Z,16.01
2016-05-25T08:41:04.146Z,16.05
2016-05-25T08:42:04.149Z,16.28
2016-05-25T08:43:04.136Z,16.36
2016-05-25T08:44:04.091Z,16.36
2016-05-25T08:45:04.079Z,16.42
2016-05-25T08:46:04.066Z,16.28
2016-05-25T08:47:04.052Z,16.28
2016-05-25T08:48:04.040Z,16.39
2016-05-25T08:49:04.011Z,16.36
2016-05-25T08:50:03.998Z,16.43
2016-05-25T08:51:03.985Z,16.51
2016-05-25T08:52:03.973Z,16.36
2016-05-25T08:53:04.288Z,16.36
2016-05-25T08:54:03.774Z,16.49
2016-05-25T08:55:03.918Z,16.46
2016-05-25T08:56:03.890Z,16.49
2016-05-25T08:57:03.876Z,16.53
2016-05-25T08:58:03.723Z,16.57
2016-05-25T08:59:03.851Z,16.58
2016-05-25T09:00:03.838Z,16.61
2016-05-25T09:01:03.825Z,16.57
2016-05-25T09:02:03.687Z,16.57
2016-05-25T09:03:03.799Z,16.46
2016-05-25T09:04:03.770Z,16.53
2016-05-25T09:05:03.757Z,16.6
2016-05-25T09:06:03.589Z,16.65
2016-05-25T09:07:03.731Z,16.6
2016-05-25T09:08:03.719Z,16.61
2016-05-25T09:09:03.737Z,16.66
2016-05-25T09:10:03.677Z,16.53
2016-05-25T09:11:03.664Z,16.56
2016-05-25T09:12:03.652Z,16.57
2016-05-25T09:13:03.623Z,16.5
2016-05-25T09:14:03.610Z,16.51
2016-05-25T09:15:03.597Z,16.47
2016-05-25T09:16:03.616Z,16.51
2016-05-25T09:17:03.900Z,16.39
2016-05-25T09:18:03.463Z,16.36
2016-05-25T09:19:03.764Z,16.31
2016-05-25T09:20:04.001Z,16.33
2016-05-25T09:21:03.504Z,16.39
2016-05-25T09:22:03.475Z,16.31
2016-05-25T09:23:03.525Z,16.13
2016-05-25T09:24:03.449Z,16.02
2016-05-25T09:25:03.421Z,16.05
2016-05-25T09:26:03.407Z,16.01
2016-05-25T09:27:03.473Z,16.04
2016-05-25T09:28:03.631Z,16.08
2016-05-25T09:29:03.353Z,16
2016-05-25T09:30:03.340Z,16.01
2016-05-25T09:31:03.328Z,16.09
2016-05-25T09:32:03.331Z,16.02
2016-05-25T09:33:03.504Z,16.15
2016-05-25T09:34:03.273Z,16.2
2016-05-25T09:35:03.245Z,16.24
2016-05-25T09:36:03.247Z,16.17
2016-05-25T09:37:03.219Z,16.31
2016-05-25T09:38:03.205Z,16.31
2016-05-25T09:39:03.178Z,16.33
2016-05-25T09:40:03.008Z,16.38
2016-05-25T09:41:03.150Z,16.39
2016-05-25T09:42:03.139Z,16.56
2016-05-25T09:43:03.142Z,16.6
2016-05-25T09:44:03.097Z,16.64
2016-05-25T09:45:03.083Z,16.56
2016-05-25T09:46:03.071Z,16.53
2016-05-25T09:47:03.058Z,16.54
2016-05-25T09:48:03.217Z,16.65
2016-05-25T09:49:03.016Z,16.74
2016-05-25T09:50:03.004Z,16.9
2016-05-25T09:51:02.991Z,16.93
2016-05-25T09:52:02.962Z,17.05
2016-05-25T09:53:05.137Z,17.26
2016-05-25T09:54:02.936Z,17.39
2016-05-25T09:55:02.923Z,17.59
2016-05-25T09:56:02.910Z,17.68
2016-05-25T09:57:02.897Z,17.68
2016-05-25T09:58:02.713Z,17.78
2016-05-25T09:59:02.856Z,17.92
2016-05-25T10:00:02.858Z,18.13
2016-05-25T10:01:02.829Z,18.23
2016-05-25T10:02:02.817Z,18.38
2016-05-25T10:03:02.835Z,18.34
2016-05-25T10:04:03.712Z,18.45
2016-05-25T10:05:03.481Z,18.59
2016-05-25T10:06:03.531Z,18.58
2016-05-25T10:07:02.752Z,18.58
2016-05-25T10:08:02.583Z,18.8
2016-05-25T10:09:02.820Z,18.84
2016-05-25T10:10:02.714Z,19.07
2016-05-25T10:11:02.700Z,19.08
2016-05-25T10:12:02.703Z,19.15
2016-05-25T10:13:02.675Z,19.33
2016-05-25T10:14:02.724Z,19.34
2016-05-25T10:15:02.633Z,19.31
2016-05-25T10:16:02.480Z,19.37
2016-05-25T10:17:02.998Z,19.37
2016-05-25T10:18:02.626Z,19.34
2016-05-25T10:19:02.582Z,19.3
2016-05-25T10:20:02.584Z,19.3
2016-05-25T10:21:02.555Z,19.33
2016-05-25T10:22:02.574Z,19.34
2016-05-25T10:23:02.546Z,19.27
2016-05-25T10:24:02.516Z,19.34
2016-05-25T10:25:02.505Z,19.51
2016-05-25T10:26:02.351Z,19.44
2016-05-25T10:27:02.478Z,19.52
2016-05-25T10:28:02.466Z,19.7
2016-05-25T10:29:02.452Z,19.67
2016-05-25T10:30:02.439Z,19.67
2016-05-25T10:31:02.426Z,19.66
2016-05-25T10:32:02.413Z,19.66
2016-05-25T10:33:02.401Z,19.66
2016-05-25T10:34:02.387Z,19.63
2016-05-25T10:35:02.218Z,19.63
2016-05-25T10:36:03.784Z,19.66
2016-05-25T10:37:02.333Z,19.58
2016-05-25T10:38:02.336Z,19.55
2016-05-25T10:39:02.307Z,19.47
2016-05-25T10:40:02.309Z,19.52
2016-05-25T10:41:05.031Z,19.56
2016-05-25T10:42:02.284Z,19.54
2016-05-25T10:43:02.256Z,19.47
2016-05-25T10:44:02.258Z,19.45
2016-05-25T10:45:02.072Z,19.52
2016-05-25T10:46:02.216Z,19.54
2016-05-25T10:47:02.360Z,19.66
2016-05-25T10:48:02.206Z,19.51
2016-05-25T10:49:02.178Z,19.49
2016-05-25T10:50:02.165Z,19.69
2016-05-25T10:51:02.152Z,19.64
2016-05-25T10:52:02.155Z,19.51
2016-05-25T10:53:02.299Z,19.36
2016-05-25T10:54:02.269Z,19.41
2016-05-25T10:55:02.116Z,19.39
2016-05-25T10:56:02.088Z,19.52
2016-05-25T10:57:02.074Z,19.51
2016-05-25T10:58:01.921Z,19.49
2016-05-25T10:59:02.048Z,19.44
2016-05-25T11:00:02.035Z,19.36
2016-05-25T11:01:02.023Z,19.41
2016-05-25T11:02:02.025Z,19.49
2016-05-25T11:03:01.857Z,19.51
2016-05-25T11:04:01.999Z,19.45
2016-05-25T11:05:01.971Z,19.67
2016-05-25T11:06:01.974Z,19.76
2016-05-25T11:07:01.945Z,19.94
2016-05-25T11:08:01.932Z,20.14
2016-05-25T11:09:01.934Z,20.26
2016-05-25T11:10:01.906Z,20.52
2016-05-25T11:11:01.909Z,20.58
2016-05-25T11:12:01.881Z,20.75
2016-05-25T11:13:01.883Z,20.9
2016-05-25T11:14:01.869Z,21.02
2016-05-25T11:15:01.841Z,21.33
2016-05-25T11:16:01.844Z,21.52
2016-05-25T11:17:01.675Z,21.67
2016-05-25T11:18:01.881Z,21.54
2016-05-25T11:19:01.806Z,21.61
2016-05-25T11:20:01.808Z,21.69
2016-05-25T11:21:01.794Z,21.62
2016-05-25T11:22:01.627Z,21.82
2016-05-25T11:23:01.972Z,21.95
2016-05-25T11:24:01.757Z,21.85
2016-05-25T11:25:02.415Z,22.06
2016-05-25T11:26:01.731Z,22.18
2016-05-25T11:27:01.733Z,22.28
2016-05-25T11:28:01.720Z,22.45
2016-05-25T11:29:01.707Z,22.55
2016-05-25T11:30:01.694Z,22.68
2016-05-25T11:31:01.681Z,22.55
2016-05-25T11:32:01.965Z,22.62
2016-05-25T11:33:02.437Z,22.53
2016-05-25T11:34:01.502Z,22.47
2016-05-25T11:35:01.646Z,22.33
2016-05-25T11:36:01.648Z,22.43
2016-05-25T11:37:01.634Z,22.29
2016-05-25T11:38:01.623Z,22.25
2016-05-25T11:39:01.625Z,22.29
2016-05-25T11:40:01.596Z,22.14
2016-05-25T11:41:01.818Z,22.11
2016-05-25T11:42:01.586Z,22.02
2016-05-25T11:43:01.589Z,22.11
2016-05-25T11:44:01.669Z,22.18
2016-05-25T11:45:01.547Z,22.15
2016-05-25T11:46:01.534Z,22.2
2016-05-25T11:47:01.537Z,22.14
2016-05-25T11:48:01.525Z,22.02
2016-05-25T11:49:01.511Z,21.93
2016-05-25T11:50:01.498Z,21.8
2016-05-25T11:51:01.329Z,21.76
2016-05-25T11:52:01.488Z,21.67
2016-05-25T11:53:01.475Z,21.33
2016-05-25T11:54:01.305Z,21.36
2016-05-25T11:55:01.449Z,21.36
2016-05-25T11:56:01.436Z,21.15
2016-05-25T11:57:01.438Z,21.03
2016-05-25T11:58:01.426Z,21.02
2016-05-25T11:59:01.413Z,21.15
2016-05-25T12:00:01.244Z,21.14
2016-05-25T12:01:01.387Z,21.18
2016-05-25T12:02:01.374Z,21.36
2016-05-25T12:03:01.377Z,21.33
2016-05-25T12:04:01.365Z,21.25
2016-05-25T12:05:01.195Z,21.05
2016-05-25T12:06:01.337Z,20.93
2016-05-25T12:07:01.168Z,20.88
2016-05-25T12:08:01.359Z,21.09
2016-05-25T12:09:01.299Z,21.15
2016-05-25T12:10:01.131Z,21.25
2016-05-25T12:11:01.273Z,21.32
2016-05-25T12:12:01.103Z,21.36
2016-05-25T12:13:01.107Z,21.33
2016-05-25T12:14:01.266Z,21.55
2016-05-25T12:15:01.222Z,21.67
2016-05-25T12:16:01.224Z,21.89
2016-05-25T12:17:01.211Z,22.26
2016-05-25T12:18:01.198Z,22.69
2016-05-25T12:19:01.186Z,22.84
2016-05-25T12:20:01.267Z,23
2016-05-25T12:21:01.160Z,23.08
2016-05-25T12:22:01.163Z,23.32
2016-05-25T12:23:01.150Z,23.28
2016-05-25T12:24:01.136Z,23.4
2016-05-25T12:25:01.124Z,23.56
2016-05-25T12:26:01.126Z,23.76
2016-05-25T12:27:01.144Z,23.92
2016-05-25T12:28:01.132Z,24.02
2016-05-25T12:29:00.947Z,23.99
2016-05-25T12:30:01.090Z,24.08
2016-05-25T12:31:01.108Z,24.06
2016-05-25T12:32:01.454Z,24.16
2016-05-25T12:33:01.192Z,24.14
2016-05-25T12:34:01.070Z,23.93
2016-05-25T12:35:01.057Z,24.01
2016-05-25T12:36:00.887Z,23.91
2016-05-25T12:37:01.031Z,23.68
2016-05-25T12:38:01.659Z,23.61
2016-05-25T12:39:01.021Z,23.44
2016-05-25T12:40:01.007Z,23.28
2016-05-25T12:41:00.854Z,23.28
2016-05-25T12:42:00.997Z,23.12
2016-05-25T12:43:02.344Z,23.05
2016-05-25T12:44:00.972Z,22.93
2016-05-25T12:45:00.975Z,22.66
2016-05-25T12:46:00.945Z,22.45
2016-05-25T12:47:00.948Z,22.11
2016-05-25T12:48:00.951Z,22.25
2016-05-25T12:49:00.939Z,22.13
2016-05-25T12:50:00.926Z,22.1
2016-05-25T12:51:00.990Z,22.02
2016-05-25T12:52:01.055Z,21.91
2016-05-25T12:53:01.355Z,21.73
2016-05-25T12:54:00.874Z,21.6
2016-05-25T12:55:00.861Z,21.72
2016-05-25T12:56:00.863Z,21.85